Time;durP1;ratioP1;P1;durP2;ratioP2;P2;SDS_P1;SDS_P2;PMS_P1;PMS_P2;Temp;Humidity;BMP_temperature;BMP_pressure;BME280_temperature;BME280_humidity;BME280_pressure;Samples;Min_cycle;Max_cycle;Signal;HPM_P1;HPM_P2
2022/05/06 00:01:16;;;;;;;7.15;5.15;;;;;;;14.47;89.96;100828.25;5590375;31;34356;-66
2022/05/06 00:04:19;;;;;;;6.12;4.25;;;;;;;14.47;89.83;100830.94;5589710;31;32724;-66
2022/05/06 00:07:22;;;;;;;6.50;4.75;;;;;;;14.44;90.10;100829.44;5590403;31;34252;-66
2022/05/06 00:10:25;;;;;;;7.40;4.82;;;;;;;14.57;89.12;100829.63;5590157;31;34881;-67
2022/05/06 00:13:27;;;;;;;5.45;4.30;;;;;;;14.45;89.42;100830.25;5590269;31;34215;-66
2022/05/06 00:16:30;;;;;;;7.60;4.68;;;;;;;14.48;89.65;100824.56;5590215;31;34918;-66
2022/05/06 00:19:34;;;;;;;6.60;4.60;;;;;;;14.40;89.28;100822.81;5589629;31;33531;-66
2022/05/06 00:22:36;;;;;;;5.72;4.40;;;;;;;14.39;89.21;100817.63;5589334;31;32908;-66
2022/05/06 00:25:39;;;;;;;7.90;4.97;;;;;;;14.36;89.21;100818.84;5590212;31;34898;-66
2022/05/06 00:28:42;;;;;;;9.98;4.57;;;;;;;14.26;90.17;100826.25;5590276;31;34175;-66
2022/05/06 00:31:44;;;;;;;7.78;4.80;;;;;;;14.23;90.96;100831.97;5589326;31;33624;-66
2022/05/06 00:34:47;;;;;;;8.20;4.87;;;;;;;14.19;91.58;100833.31;5589620;31;32977;-66
2022/05/06 00:37:49;;;;;;;8.93;4.93;;;;;;;14.15;92.19;100838.19;5590016;31;35491;-66
2022/05/06 00:40:53;;;;;;;6.32;4.87;;;;;;;14.12;93.12;100835.03;5590028;31;34249;-66
2022/05/06 00:43:56;;;;;;;7.30;5.15;;;;;;;14.04;93.93;100837.78;5589472;31;32977;-66
2022/05/06 00:47:01;;;;;;;8.90;4.93;;;;;;;14.02;94.23;100832.63;5588946;31;32993;-67
2022/05/06 00:50:04;;;;;;;6.93;4.85;;;;;;;14.01;94.83;100828.28;5576085;31;33230;-66
2022/05/06 00:53:08;;;;;;;7.30;4.65;;;;;;;13.92;95.65;100835.53;5589270;31;34572;-66
2022/05/06 00:56:12;;;;;;;8.27;4.78;;;;;;;13.86;96.12;100835.41;5589178;31;34303;-66
2022/05/06 00:59:15;;;;;;;8.30;5.43;;;;;;;13.90;96.63;100837.53;5589960;31;35458;-66
2022/05/06 01:02:19;;;;;;;10.10;5.70;;;;;;;13.83;96.76;100846.44;5589366;31;32603;-66
2022/05/06 01:05:28;;;;;;;6.93;5.50;;;;;;;13.78;96.96;100846.13;5589830;31;34294;-66
2022/05/06 01:08:31;;;;;;;7.07;5.20;;;;;;;13.81;98.00;100832.44;5588613;31;34403;-66
2022/05/06 01:11:34;;;;;;;7.18;5.18;;;;;;;13.74;98.19;100843.00;5588580;31;34232;-66
2022/05/06 01:14:38;;;;;;;8.02;5.32;;;;;;;13.78;97.46;100838.97;5589140;31;33355;-66
2022/05/06 01:17:42;;;;;;;8.05;5.22;;;;;;;13.75;98.89;100844.63;5589726;31;34141;-66
2022/05/06 01:20:48;;;;;;;6.68;5.45;;;;;;;13.85;97.88;100842.56;5590166;31;34483;-66
2022/05/06 01:23:51;;;;;;;7.43;4.87;;;;;;;13.85;97.87;100847.91;5589756;31;34234;-66
2022/05/06 01:27:00;;;;;;;7.65;5.18;;;;;;;13.92;97.41;100848.88;5588809;31;33531;-66
2022/05/06 01:30:06;;;;;;;7.43;4.90;;;;;;;13.99;95.26;100856.97;5589960;31;34680;-66
2022/05/06 01:33:14;;;;;;;8.15;5.10;;;;;;;13.91;95.99;100855.22;5588920;31;33476;-66
2022/05/06 01:36:19;;;;;;;7.87;5.17;;;;;;;13.93;95.53;100860.37;5589578;31;34305;-66
2022/05/06 01:39:33;;;;;;;8.57;5.45;;;;;;;14.00;93.81;100857.81;5588785;31;34421;-66
2022/05/06 01:42:38;;;;;;;6.22;5.20;;;;;;;13.98;93.37;100851.84;5589537;31;34896;-67
2022/05/06 01:45:42;;;;;;;7.65;5.10;;;;;;;13.99;93.39;100851.63;5589586;31;34889;-66
2022/05/06 01:48:48;;;;;;;7.00;5.25;;;;;;;14.02;93.01;100859.31;5588527;31;32738;-66
2022/05/06 01:51:54;;;;;;;8.05;5.40;;;;;;;13.99;92.59;100854.31;5589718;31;34977;-66
2022/05/06 01:54:58;;;;;;;7.28;5.57;;;;;;;14.02;92.21;100839.78;5589774;31;34859;-66
2022/05/06 01:58:04;;;;;;;9.40;5.57;;;;;;;14.00;91.54;100853.31;5588706;31;33478;-65
2022/05/06 02:01:07;;;;;;;6.57;4.97;;;;;;;14.01;91.43;100846.13;5589360;31;34284;-66
2022/05/06 02:07:32;;;;;;;7.37;4.93;;;;;;;13.98;90.97;100842.00;5589210;31;34259;-67
2022/05/06 02:10:38;;;;;;;6.87;5.43;;;;;;;13.90;91.57;100845.53;5589507;31;34188;-66
2022/05/06 02:13:41;;;;;;;5.18;4.68;;;;;;;13.92;91.78;100843.53;5589212;31;34976;-66
2022/05/06 02:16:44;;;;;;;8.48;4.95;;;;;;;13.88;91.57;100838.75;5589230;31;34166;-66
2022/05/06 02:19:49;;;;;;;8.38;5.35;;;;;;;13.88;91.55;100836.91;5589427;31;34100;-66
2022/05/06 02:22:52;;;;;;;7.37;5.00;;;;;;;13.86;91.44;100838.91;5574607;31;34290;-66
2022/05/06 02:25:55;;;;;;;5.90;4.90;;;;;;;13.78;93.17;100828.31;5589081;31;34217;-66
2022/05/06 02:28:58;;;;;;;8.52;4.87;;;;;;;13.76;92.11;100840.97;5588283;31;34797;-66
2022/05/06 02:35:22;;;;;;;8.25;5.32;;;;;;;13.85;91.40;100845.25;5588896;31;34664;-67
2022/05/06 02:38:27;;;;;;;7.43;4.97;;;;;;;13.81;91.35;100835.09;5588927;31;34267;-66
2022/05/06 02:41:30;;;;;;;8.80;4.72;;;;;;;13.76;92.30;100840.13;5588086;31;32863;-66
2022/05/06 02:44:32;;;;;;;7.53;4.53;;;;;;;13.82;91.36;100837.59;5588802;31;34597;-67
2022/05/06 02:47:36;;;;;;;6.03;4.28;;;;;;;13.94;91.24;100833.50;5587858;31;34094;-67
2022/05/06 02:50:41;;;;;;;5.93;4.87;;;;;;;13.81;93.27;100838.59;5588704;31;34218;-66
2022/05/06 02:53:44;;;;;;;6.10;5.18;;;;;;;13.69;93.21;100837.37;5588570;31;34353;-67
2022/05/06 02:56:49;;;;;;;6.28;4.85;;;;;;;13.59;93.20;100846.59;5588535;31;34149;-66
2022/05/06 02:59:52;;;;;;;8.27;5.32;;;;;;;13.66;92.05;100842.19;5588522;31;34791;-67
2022/05/06 03:02:57;;;;;;;7.62;5.32;;;;;;;13.62;92.85;100846.22;5588062;31;34199;-67
2022/05/06 03:06:00;;;;;;;10.55;5.00;;;;;;;13.56;93.40;100831.75;5588788;31;35497;-67
2022/05/06 03:09:03;;;;;;;6.72;5.03;;;;;;;13.49;93.69;100829.00;5588652;31;34183;-67
2022/05/06 03:12:07;;;;;;;7.40;5.25;;;;;;;13.41;94.25;100831.69;5587466;31;34820;-66
2022/05/06 03:15:11;;;;;;;8.02;5.25;;;;;;;13.41;94.41;100831.69;5588553;31;34257;-67
2022/05/06 03:18:14;;;;;;;8.52;6.07;;;;;;;13.38;94.86;100828.56;5587788;31;35086;-66
2022/05/06 03:21:17;;;;;;;6.78;5.28;;;;;;;13.31;95.77;100832.94;5588159;31;34186;-67
2022/05/06 03:24:20;;;;;;;6.85;5.57;;;;;;;13.28;96.06;100830.59;5574257;31;32671;-66
2022/05/06 03:30:45;;;;;;;7.12;5.68;;;;;;;13.26;96.66;100846.78;5588263;31;34202;-67
2022/05/06 03:33:49;;;;;;;9.15;5.53;;;;;;;13.29;97.48;100851.75;5589138;31;32767;-66
2022/05/06 03:36:54;;;;;;;7.05;4.93;;;;;;;13.44;98.60;100857.16;5589966;31;33081;-66
2022/05/06 03:39:57;;;;;;;7.40;5.22;;;;;;;13.48;98.47;100855.81;5589713;31;33412;-66
2022/05/06 03:43:01;;;;;;;6.25;5.10;;;;;;;13.67;96.62;100859.88;5589496;31;33370;-66
2022/05/06 03:46:04;;;;;;;7.47;5.05;;;;;;;13.58;97.52;100851.09;5589567;31;34290;-67
2022/05/06 03:49:07;;;;;;;7.55;5.43;;;;;;;13.55;97.98;100862.12;5590427;31;34886;-67
2022/05/06 03:52:10;;;;;;;7.22;5.15;;;;;;;13.48;97.85;100858.47;5590429;31;34859;-67
2022/05/06 03:55:14;;;;;;;5.93;5.32;;;;;;;13.44;98.56;100858.00;5590521;31;34151;-67
2022/05/06 03:58:18;;;;;;;8.48;5.00;;;;;;;13.54;97.20;100852.47;5590753;31;34301;-66
2022/05/06 04:01:21;;;;;;;6.22;4.87;;;;;;;13.59;97.20;100859.94;5589757;31;32587;-66
2022/05/06 04:04:26;;;;;;;7.62;4.80;;;;;;;13.56;97.05;100869.09;5576645;31;33767;-66
2022/05/06 04:07:30;;;;;;;8.55;5.35;;;;;;;13.59;96.98;100868.75;5590371;31;34218;-67
2022/05/06 04:10:34;;;;;;;8.25;5.18;;;;;;;13.58;97.31;100861.75;5590239;31;34889;-67
2022/05/06 04:13:37;;;;;;;7.68;5.32;;;;;;;13.57;97.60;100872.59;5590540;31;34232;-67
2022/05/06 04:16:41;;;;;;;7.32;5.18;;;;;;;13.60;97.21;100874.94;5590270;31;34888;-67
2022/05/06 04:26:31;;;;;;;6.90;4.90;;;;;;;13.79;95.29;100888.63;5589081;31;34190;-67
2022/05/06 04:29:34;;;;;;;12.70;5.53;;;;;;;13.85;94.32;100892.41;5590086;31;34377;-66
2022/05/06 04:32:38;;;;;;;8.25;5.53;;;;;;;13.89;94.26;100893.75;5589421;31;32719;-66
2022/05/06 04:35:46;;;;;;;9.77;5.45;;;;;;;13.99;93.73;100896.97;5589751;31;34175;-67
2022/05/06 04:38:49;;;;;;;7.90;4.97;;;;;;;14.11;93.92;100900.91;5589347;31;33453;-67
2022/05/06 04:41:53;;;;;;;6.00;5.15;;;;;;;14.29;91.19;100903.28;5576179;31;33532;-66
2022/05/06 04:44:57;;;;;;;9.15;5.57;;;;;;;14.34;92.15;100911.56;5588604;31;32751;-66
2022/05/06 04:48:00;;;;;;;6.10;5.32;;;;;;;14.58;91.22;100900.72;5588457;31;32840;-66
2022/05/06 04:51:04;;;;;;;7.97;4.78;;;;;;;14.63;89.38;100906.34;5589490;31;34504;-66
2022/05/06 04:54:10;;;;;;;7.75;5.60;;;;;;;14.73;89.09;100911.44;5588985;31;32627;-65
2022/05/06 04:57:13;;;;;;;7.60;4.97;;;;;;;14.73;89.18;100912.25;5589207;31;33488;-66
2022/05/06 05:00:17;;;;;;;7.62;5.37;;;;;;;14.88;88.31;100914.13;5588934;31;32793;-66
2022/05/06 05:03:21;;;;;;;6.85;5.10;;;;;;;14.88;88.22;100916.78;5589795;31;34201;-66
2022/05/06 05:06:24;;;;;;;5.40;4.53;;;;;;;15.08;86.60;100916.06;5589058;31;33407;-66
2022/05/06 05:09:27;;;;;;;8.10;4.82;;;;;;;15.17;86.05;100919.47;5589110;31;33338;-65
2022/05/06 05:12:31;;;;;;;7.30;4.55;;;;;;;15.02;86.71;100916.81;5588744;31;33557;-66
2022/05/06 05:15:34;;;;;;;6.22;5.12;;;;;;;15.18;86.41;100918.47;5589019;31;32884;-65
2022/05/06 05:18:40;;;;;;;10.73;5.30;;;;;;;15.09;86.94;100930.28;5588821;31;32800;-66
2022/05/06 05:21:43;;;;;;;9.50;4.90;;;;;;;15.34;84.19;100929.00;5589589;31;34256;-65
2022/05/06 05:24:47;;;;;;;7.75;5.40;;;;;;;15.17;85.03;100935.53;5588653;31;33891;-66
2022/05/06 05:27:50;;;;;;;6.75;5.30;;;;;;;15.08;85.47;100928.59;5588419;31;33049;-66
2022/05/06 05:30:56;;;;;;;8.07;5.30;;;;;;;15.26;84.52;100922.88;5588096;31;33566;-66
2022/05/06 05:33:59;;;;;;;6.62;4.68;;;;;;;15.46;82.65;100930.16;5589230;31;34224;-66
2022/05/06 05:37:02;;;;;;;6.45;4.53;;;;;;;15.24;84.45;100928.44;5589435;31;34601;-65
2022/05/06 05:40:06;;;;;;;9.70;5.10;;;;;;;15.23;84.90;100924.09;5589180;31;34897;-66
2022/05/06 05:48:19;;;;;;;7.35;4.82;;;;;;;15.51;83.80;100926.97;5588162;31;33764;-66
2022/05/06 05:49:55;;;;;;;7.47;4.87;;;;;;;15.52;84.53;100923.28;5587653;31;34281;-66
2022/05/06 05:52:59;;;;;;;5.97;4.75;;;;;;;15.61;83.38;100935.53;5588275;31;32964;-66
2022/05/06 05:56:03;;;;;;;7.90;5.07;;;;;;;15.77;81.81;100935.31;5588056;31;34375;-65
2022/05/06 05:59:05;;;;;;;7.85;4.65;;;;;;;15.77;81.52;100927.28;5589185;31;34902;-66
2022/05/06 06:02:11;;;;;;;9.05;4.80;;;;;;;15.77;81.01;100935.31;5588148;31;33341;-66
2022/05/06 06:05:16;;;;;;;7.97;5.12;;;;;;;15.79;81.60;100943.13;5587564;31;34413;-65
2022/05/06 06:08:19;;;;;;;7.50;4.97;;;;;;;15.68;81.86;100944.47;5589106;31;34216;-66
2022/05/06 06:11:22;;;;;;;7.93;4.85;;;;;;;15.52;81.94;100945.50;5588623;31;34587;-66
2022/05/06 06:14:25;;;;;;;14.30;5.60;;;;;;;15.81;81.95;100947.31;5587843;31;33067;-66
2022/05/06 06:17:28;;;;;;;9.75;5.82;;;;;;;15.97;80.57;100943.56;5588568;31;34203;-67
2022/05/06 06:20:31;;;;;;;10.27;6.00;;;;;;;16.04;79.62;100947.12;5588888;31;35520;-67
2022/05/06 06:23:35;;;;;;;10.75;5.90;;;;;;;15.88;81.26;100942.84;5587526;31;34144;-67
2022/05/06 06:26:38;;;;;;;8.43;5.65;;;;;;;16.15;80.55;100948.50;5587811;31;33483;-67
2022/05/06 06:29:41;;;;;;;9.15;5.07;;;;;;;16.14;79.69;100944.16;5587582;31;34675;-67
2022/05/06 06:32:46;;;;;;;8.85;5.03;;;;;;;16.11;79.72;100953.41;5588126;31;33513;-67
2022/05/06 06:35:50;;;;;;;9.82;5.03;;;;;;;15.95;80.01;100953.62;5588754;31;34112;-66
2022/05/06 06:38:54;;;;;;;8.50;4.95;;;;;;;15.85;80.54;100953.94;5588229;31;34846;-67
2022/05/06 06:41:57;;;;;;;6.65;4.65;;;;;;;16.02;79.53;100951.87;5587433;31;33045;-68
2022/05/06 06:45:00;;;;;;;10.77;5.18;;;;;;;16.34;77.88;100955.91;5588430;31;34284;-67
2022/05/06 06:48:05;;;;;;;9.25;5.10;;;;;;;16.32;78.00;100953.41;5588428;31;34815;-67
2022/05/06 06:51:09;;;;;;;9.32;5.15;;;;;;;16.73;76.43;100950.09;5587412;31;33007;-67
2022/05/06 06:54:12;;;;;;;10.98;4.87;;;;;;;16.63;76.59;100953.09;5587370;31;33253;-66
2022/05/06 06:57:15;;;;;;;10.32;5.43;;;;;;;16.50;77.03;100943.09;5588478;31;34261;-67
2022/05/06 07:00:18;;;;;;;6.93;4.87;;;;;;;16.46;78.55;100952.50;5588353;31;34212;-67
2022/05/06 07:03:21;;;;;;;9.52;5.22;;;;;;;16.87;76.15;100958.03;5588273;31;34117;-67
2022/05/06 07:13:06;;;;;;;6.07;4.20;;;;;;;17.45;72.77;100958.63;5590048;31;32539;-68
2022/05/06 07:16:08;;;;;;;6.65;4.40;;;;;;;17.33;73.12;100952.97;5589752;31;34150;-67
2022/05/06 07:19:11;;;;;;;6.22;4.35;;;;;;;17.56;71.83;100950.03;5589683;31;33903;-67
2022/05/06 07:22:14;;;;;;;8.10;4.72;;;;;;;17.61;72.07;100955.66;5590075;31;32947;-67
2022/05/06 07:25:29;;;;;;;8.63;4.20;;;;;;;17.24;73.24;100951.47;5590009;31;35411;-67
2022/05/06 07:28:33;;;;;;;6.85;4.45;;;;;;;17.42;73.37;100956.34;5590652;31;34423;-67
2022/05/06 07:31:36;;;;;;;8.38;4.47;;;;;;;18.21;70.28;100954.81;5589571;31;32941;-67
2022/05/06 07:34:39;;;;;;;6.50;4.10;;;;;;;18.14;69.80;100953.97;5590633;31;34409;-67
2022/05/06 07:37:42;;;;;;;6.82;4.62;;;;;;;18.66;67.94;100949.72;5590446;31;35424;-66
2022/05/06 07:40:44;;;;;;;7.68;4.32;;;;;;;17.88;71.88;100950.38;5589323;31;32988;-67
2022/05/06 07:43:47;;;;;;;7.93;4.60;;;;;;;18.33;69.98;100957.72;5589856;31;32842;-68
2022/05/06 07:46:49;;;;;;;8.20;4.37;;;;;;;18.36;68.37;100961.84;5590604;31;34929;-69
2022/05/06 07:49:53;;;;;;;5.25;3.85;;;;;;;18.70;67.85;100953.66;5589591;31;33356;-68
2022/05/06 07:52:56;;;;;;;6.47;4.43;;;;;;;19.00;66.50;100964.81;5590528;31;34770;-67
2022/05/06 07:55:58;;;;;;;6.78;3.97;;;;;;;19.11;66.59;100961.50;5589846;31;33687;-67
2022/05/06 07:59:01;;;;;;;8.43;4.65;;;;;;;18.88;67.99;100958.41;5590141;31;34907;-68
2022/05/06 08:05:27;;;;;;;8.90;4.18;;;;;;;18.66;68.63;100952.41;5589504;31;33404;-67
2022/05/06 08:08:31;;;;;;;7.43;4.18;;;;;;;19.52;65.49;100947.75;5589430;31;32555;-67
2022/05/06 08:11:33;;;;;;;4.68;3.83;;;;;;;19.32;65.74;100949.63;5589066;31;32903;-66
2022/05/06 08:14:39;;;;;;;7.90;4.35;;;;;;;19.73;64.51;100952.03;5590392;31;34639;-67
2022/05/06 08:17:42;;;;;;;4.90;3.85;;;;;;;19.18;65.83;100953.38;5588005;31;33410;-67
2022/05/06 08:20:46;;;;;;;6.20;4.32;;;;;;;19.25;66.35;100956.91;5589500;31;34628;-67
2022/05/06 08:23:49;;;;;;;9.10;4.72;;;;;;;19.51;65.08;100952.28;5589121;31;32884;-67
2022/05/06 08:26:51;;;;;;;9.02;4.85;;;;;;;20.78;60.55;100954.06;5589107;31;32793;-67
2022/05/06 08:29:54;;;;;;;6.75;4.10;;;;;;;21.23;58.18;100965.50;5589249;31;33393;-67
2022/05/06 08:32:56;;;;;;;7.43;4.22;;;;;;;20.62;60.17;100957.31;5589992;31;34804;-67
2022/05/06 08:36:00;;;;;;;5.87;4.32;;;;;;;20.86;59.44;100961.91;5589691;31;35001;-67
2022/05/06 08:39:03;;;;;;;5.82;4.03;;;;;;;21.62;56.47;100954.28;5589309;31;34892;-67
2022/05/06 08:42:08;;;;;;;6.03;4.18;;;;;;;22.09;56.33;100951.81;5589429;31;34229;-67
2022/05/06 08:51:58;;;;;;;8.18;4.32;;;;;;;20.89;56.92;100955.22;5589050;31;33445;-67
2022/05/06 08:55:02;;;;;;;7.85;4.30;;;;;;;21.83;56.71;100963.78;5588454;31;33847;-67
2022/05/06 08:58:06;;;;;;;6.57;3.90;;;;;;;21.42;57.97;100960.94;5588970;31;32943;-67
2022/05/06 09:01:11;;;;;;;5.90;4.00;;;;;;;20.93;58.98;100956.41;5588242;31;33780;-67
2022/05/06 09:04:18;;;;;;;6.68;4.05;;;;;;;21.31;58.38;100950.88;5589496;31;34903;-67
2022/05/06 09:07:23;;;;;;;4.93;3.70;;;;;;;21.31;58.47;100954.41;5588652;31;32777;-68
2022/05/06 09:10:26;;;;;;;6.07;3.85;;;;;;;21.18;57.80;100950.00;5589255;31;34812;-67
2022/05/06 09:13:30;;;;;;;7.22;4.20;;;;;;;20.89;59.60;100944.44;5589794;31;34251;-68
2022/05/06 09:16:44;;;;;;;9.15;4.65;;;;;;;20.32;61.46;100952.56;5589849;31;34159;-67
2022/05/06 09:19:47;;;;;;;4.90;3.70;;;;;;;22.12;56.54;100950.53;5588679;31;33228;-67
2022/05/06 09:22:51;;;;;;;7.87;4.00;;;;;;;23.91;51.06;100941.75;5589421;31;34307;-68
2022/05/06 09:25:55;;;;;;;6.82;4.03;;;;;;;23.60;51.51;100948.44;5589501;31;34127;-66
2022/05/06 09:28:57;;;;;;;7.68;4.25;;;;;;;23.10;51.37;100950.81;5589496;31;34203;-68
2022/05/06 09:32:14;;;;;;;7.30;4.78;;;;;;;22.06;54.79;100949.56;5589454;31;34296;-67
2022/05/06 09:35:18;;;;;;;54.45;5.57;;;;;;;21.74;56.17;100954.31;5590123;31;35459;-66
2022/05/06 09:38:29;;;;;;;10.20;4.65;;;;;;;22.07;55.32;100949.31;5589936;31;33823;-65
2022/05/06 09:41:35;;;;;;;11.10;4.32;;;;;;;22.37;54.59;100960.13;5590336;31;34193;-67
2022/05/06 09:44:46;;;;;;;7.93;4.60;;;;;;;22.46;54.44;100955.22;5589481;31;35466;-66
2022/05/06 09:47:57;;;;;;;10.98;4.12;;;;;;;22.42;54.75;100952.16;5588686;31;34244;-67
2022/05/06 09:51:00;;;;;;;7.07;4.35;;;;;;;23.48;51.70;100945.75;5588701;31;33160;-66
2022/05/06 09:54:05;;;;;;;6.30;3.50;;;;;;;23.32;52.15;100941.87;5588986;31;34478;-67
2022/05/06 10:05:44;;;;;;;6.72;3.95;;;;;;;23.95;49.51;100934.78;5588364;31;32404;-69
2022/05/06 10:08:49;;;;;;;5.55;3.60;;;;;;;24.79;47.86;100938.41;5588919;31;34559;-69
2022/05/06 10:11:55;;;;;;;4.53;3.53;;;;;;;25.26;46.53;100931.56;5589285;31;34868;-68
2022/05/06 10:15:02;;;;;;;6.28;3.42;;;;;;;25.78;45.24;100929.25;5588767;31;34559;-68
2022/05/06 10:18:07;;;;;;;5.47;3.70;;;;;;;23.96;49.41;100929.13;5588094;31;34236;-69
2022/05/06 10:21:11;;;;;;;4.03;3.10;;;;;;;25.03;47.24;100927.16;5587951;31;34210;-68
2022/05/06 10:24:15;;;;;;;5.37;3.35;;;;;;;26.36;44.18;100927.69;5587760;31;32664;-68
2022/05/06 10:27:23;;;;;;;4.00;2.80;;;;;;;26.67;42.29;100939.66;5588854;31;34173;-67
2022/05/06 10:34:29;;;;;;;6.72;2.30;;;;;;;26.17;39.65;100919.06;5588772;31;34564;-67
2022/05/06 10:37:40;;;;;;;3.75;2.10;;;;;;;25.96;39.76;100922.63;5586664;31;34948;-68
2022/05/06 10:40:56;;;;;;;5.35;2.37;;;;;;;26.47;37.34;100915.81;5588664;31;34177;-68
2022/05/06 10:43:59;;;;;;;3.30;2.37;;;;;;;27.37;37.59;100922.13;5588130;31;35660;-68
2022/05/06 10:47:12;;;;;;;7.82;2.40;;;;;;;28.33;34.49;100923.28;5591122;31;34316;-68
2022/05/06 10:50:19;;;;;;;3.37;2.20;;;;;;;28.36;34.45;100909.09;5588234;31;34419;-68
2022/05/06 10:53:34;;;;;;;4.15;2.60;;;;;;;28.42;34.37;100904.44;5588310;31;34168;-68
2022/05/06 10:56:44;;;;;;;3.50;2.30;;;;;;;28.30;35.06;100902.00;5588337;31;34177;-68
2022/05/06 10:59:50;;;;;;;4.57;2.50;;;;;;;27.07;37.24;100904.56;5588210;31;34250;-68
2022/05/06 11:02:52;;;;;;;4.30;2.67;;;;;;;26.93;37.76;100897.94;5587294;31;33112;-67
2022/05/06 11:05:55;;;;;;;5.25;2.53;;;;;;;26.81;37.45;100895.41;5587238;31;32951;-66
2022/05/06 11:08:58;;;;;;;4.32;2.33;;;;;;;26.48;38.58;100895.69;5587478;31;32649;-66
2022/05/06 11:12:02;;;;;;;4.32;2.45;;;;;;;27.88;36.42;100890.47;5587699;31;34837;-67
2022/05/06 11:15:08;;;;;;;4.18;2.70;;;;;;;29.08;34.21;100888.00;5587541;31;34256;-67
2022/05/06 11:18:10;;;;;;;3.75;2.67;;;;;;;28.77;34.26;100889.97;5588251;31;34219;-67
2022/05/06 11:21:23;;;;;;;4.15;2.33;;;;;;;28.00;37.47;100888.28;5587242;31;32960;-66
2022/05/06 11:24:34;;;;;;;4.32;2.78;;;;;;;25.86;38.89;100885.28;5587258;31;32830;-66
2022/05/06 11:27:36;;;;;;;6.93;2.80;;;;;;;25.33;40.66;100887.91;5586455;31;33711;-66
2022/05/06 11:30:44;;;;;;;4.75;3.08;;;;;;;24.51;43.17;100885.09;5587128;31;34291;-66
2022/05/06 11:33:47;;;;;;;5.60;2.25;;;;;;;24.95;43.10;100875.19;5586757;31;32575;-67
2022/05/06 11:36:50;;;;;;;4.20;2.45;;;;;;;25.15;40.84;100874.66;5586738;31;33321;-66
2022/05/06 11:40:18;;;;;;;3.78;2.50;;;;;;;26.34;39.70;100873.53;5587530;31;34937;-66
2022/05/06 11:43:21;;;;;;;7.03;2.35;;;;;;;26.46;39.31;100870.66;5586652;31;33100;-66
2022/05/06 11:49:46;;;;;;;4.10;2.55;;;;;;;26.82;37.79;100864.34;5586323;31;33146;-67
2022/05/06 11:52:49;;;;;;;5.37;2.22;;;;;;;26.99;37.91;100864.22;5586034;31;32662;-66
2022/05/06 11:55:54;;;;;;;5.87;2.75;;;;;;;26.59;39.13;100858.47;5588758;31;34693;-66
2022/05/06 11:58:59;;;;;;;4.22;2.75;;;;;;;25.24;43.18;100865.00;5576313;31;33026;-66
2022/05/06 12:02:06;;;;;;;4.05;2.60;;;;;;;24.09;43.67;100861.06;5589355;31;34220;-67
2022/05/06 12:05:12;;;;;;;4.57;2.95;;;;;;;24.72;42.04;100859.91;5590151;31;34500;-66
2022/05/06 12:08:25;;;;;;;6.35;3.03;;;;;;;25.17;41.00;100850.78;5588693;31;33129;-66
2022/05/06 12:11:28;;;;;;;3.50;2.78;;;;;;;25.82;40.38;100850.72;5589946;31;34478;-67
2022/05/06 12:14:30;;;;;;;3.90;2.72;;;;;;;26.23;39.19;100844.63;5588815;31;33573;-67
2022/05/06 12:17:36;;;;;;;5.05;2.85;;;;;;;25.93;39.53;100847.88;5589510;31;32829;-67
2022/05/06 12:20:42;;;;;;;3.03;2.20;;;;;;;25.85;41.27;100853.75;5588988;31;32743;-66
2022/05/06 12:23:50;;;;;;;3.97;2.40;;;;;;;25.40;41.13;100853.25;5589114;31;32860;-66
2022/05/06 12:26:56;;;;;;;4.03;2.53;;;;;;;26.12;39.22;100842.88;5589060;31;33222;-66
2022/05/06 12:30:00;;;;;;;4.00;2.47;;;;;;;26.52;39.06;100836.13;5589929;31;34873;-68
2022/05/06 12:33:08;;;;;;;3.78;2.65;;;;;;;27.39;37.51;100838.22;5589974;31;34795;-66
2022/05/06 12:36:18;;;;;;;3.55;2.42;;;;;;;26.80;36.85;100843.94;5589929;31;34836;-66
2022/05/06 12:39:22;;;;;;;5.05;2.10;;;;;;;27.77;35.91;100835.09;5589671;31;34843;-67
2022/05/06 12:42:25;;;;;;;7.45;2.60;;;;;;;28.59;34.70;100842.19;5589844;31;34934;-66
2022/05/06 12:46:06;;;;;;;3.08;2.20;;;;;;;29.05;33.64;100834.72;5589851;31;34221;-66
2022/05/06 12:52:35;;;;;;;6.00;2.30;;;;;;;27.89;34.90;100824.72;5588814;31;33644;-66
2022/05/06 12:55:40;;;;;;;4.80;2.55;;;;;;;26.43;37.69;100819.47;5589623;31;34405;-66
2022/05/06 12:58:43;;;;;;;3.75;2.22;;;;;;;26.00;38.07;100819.66;5589551;31;34857;-67
2022/05/06 13:01:50;;;;;;;4.03;2.28;;;;;;;25.75;39.03;100812.09;5588168;31;32723;-66
2022/05/06 13:04:53;;;;;;;4.35;2.78;;;;;;;25.26;40.57;100819.41;5589269;31;34183;-66
2022/05/06 13:07:56;;;;;;;7.65;2.42;;;;;;;24.89;41.26;100809.16;5588945;31;32780;-66
2022/05/06 13:10:58;;;;;;;3.53;2.60;;;;;;;24.86;41.11;100806.09;5589753;31;35513;-67
2022/05/06 13:14:01;;;;;;;4.90;2.28;;;;;;;24.98;39.57;100813.06;5589559;31;34283;-66
2022/05/06 13:17:04;;;;;;;3.85;1.87;;;;;;;25.03;39.27;100813.13;5588506;31;32714;-66
2022/05/06 13:20:08;;;;;;;5.72;1.95;;;;;;;25.14;39.35;100807.84;5588726;31;32913;-66
2022/05/06 13:23:10;;;;;;;5.45;2.47;;;;;;;25.31;38.72;100812.12;5588785;31;33612;-67
2022/05/06 13:26:14;;;;;;;3.25;2.37;;;;;;;25.45;39.94;100810.66;5588461;31;32638;-66
2022/05/06 13:29:16;;;;;;;4.37;2.30;;;;;;;25.19;39.24;100799.75;5588855;31;32767;-66
2022/05/06 13:32:19;;;;;;;5.40;2.33;;;;;;;24.80;39.69;100799.78;5589028;31;33382;-66
2022/05/06 13:35:24;;;;;;;4.30;2.17;;;;;;;24.95;40.39;100791.88;5589150;31;34178;-66
2022/05/06 13:38:27;;;;;;;20.23;3.00;;;;;;;24.65;40.82;100799.56;5589297;31;34371;-66
2022/05/06 13:41:30;;;;;;;3.25;2.35;;;;;;;24.74;41.59;100803.50;5588690;31;33759;-67
2022/05/06 13:44:32;;;;;;;3.60;2.03;;;;;;;25.04;41.30;100801.22;5589135;31;34690;-66
2022/05/06 13:47:35;;;;;;;3.50;2.42;;;;;;;25.41;40.46;100790.53;5587987;31;33174;-67
2022/05/06 13:50:38;;;;;;;4.47;2.33;;;;;;;24.75;42.05;100793.47;5588467;31;34517;-67
2022/05/06 13:53:41;;;;;;;3.70;2.35;;;;;;;25.34;41.33;100789.06;5588505;31;32834;-67
2022/05/06 14:00:06;;;;;;;6.20;2.03;;;;;;;24.90;41.85;100780.13;5588016;31;34919;-67
2022/05/06 14:03:13;;;;;;;5.00;2.20;;;;;;;25.46;40.59;100787.84;5588067;31;33021;-67
2022/05/06 14:06:16;;;;;;;4.35;2.22;;;;;;;24.86;41.73;100781.69;5574817;31;33554;-67
2022/05/06 14:09:19;;;;;;;5.18;2.40;;;;;;;25.12;41.24;100776.31;5588277;31;34144;-67
2022/05/06 14:12:22;;;;;;;6.05;2.30;;;;;;;25.27;40.70;100781.09;5587478;31;32685;-67
2022/05/06 14:15:24;;;;;;;3.42;2.30;;;;;;;25.01;41.48;100771.03;5587837;31;33986;-66
2022/05/06 14:18:28;;;;;;;4.32;2.25;;;;;;;25.24;40.42;100772.66;5587991;31;34454;-67
2022/05/06 14:21:31;;;;;;;4.78;2.20;;;;;;;25.02;42.06;100773.50;5587468;31;33061;-68
2022/05/06 14:24:34;;;;;;;3.20;1.92;;;;;;;24.85;41.12;100774.59;5587445;31;34148;-67
2022/05/06 14:27:36;;;;;;;5.22;2.50;;;;;;;25.37;40.25;100774.97;5586932;31;32887;-67
2022/05/06 14:30:41;;;;;;;4.57;2.10;;;;;;;24.74;41.42;100775.56;5587750;31;34260;-67
2022/05/06 14:33:44;;;;;;;6.53;2.17;;;;;;;24.75;41.72;100764.44;5588073;31;34865;-67
2022/05/06 14:36:47;;;;;;;6.72;2.30;;;;;;;24.65;42.53;100767.84;5587943;31;34131;-67
2022/05/06 14:39:54;;;;;;;5.65;2.55;;;;;;;24.39;43.16;100765.84;5587266;31;32593;-67
2022/05/06 14:42:57;;;;;;;4.93;2.22;;;;;;;24.54;41.90;100768.78;5588263;31;34424;-67
2022/05/06 14:46:00;;;;;;;2.85;2.00;;;;;;;24.34;42.81;100768.50;5587007;31;34395;-67
2022/05/06 14:49:06;;;;;;;3.53;2.28;;;;;;;24.03;43.70;100769.03;5587038;31;33124;-66
2022/05/06 14:52:09;;;;;;;2.97;2.25;;;;;;;24.17;44.09;100767.66;5586787;31;33535;-66
2022/05/06 14:55:12;;;;;;;2.95;2.20;;;;;;;24.25;43.61;100759.94;5587087;31;33367;-65
2022/05/06 14:58:15;;;;;;;6.85;2.15;;;;;;;23.84;44.15;100754.91;5586470;31;33417;-67
2022/05/06 15:01:18;;;;;;;4.07;2.45;;;;;;;23.98;43.73;100763.53;5587381;31;34757;-65
2022/05/06 15:04:21;;;;;;;2.28;2.05;;;;;;;23.93;44.32;100758.87;5586864;31;33489;-66
2022/05/06 15:07:23;;;;;;;3.20;2.20;;;;;;;23.92;44.52;100759.94;5574296;31;33845;-66
2022/05/06 15:10:26;;;;;;;3.97;2.70;;;;;;;23.59;44.42;100752.59;5587004;31;32983;-66
2022/05/06 15:13:29;;;;;;;3.50;2.37;;;;;;;23.74;45.00;100752.03;5587391;31;34566;-67
2022/05/06 15:16:32;;;;;;;2.90;2.60;;;;;;;23.54;45.54;100746.25;5586414;31;33513;-67